West Bethesda, Maryland
Current Conditions -  °F | °C
As of 9:15 PM on Monday 22 Dec 2014 (Local Time) from KGAI Reporting Station
Overcast Overcast  
Wind Chill: 30°   Ceiling: 1200
Heat Index: 34°   Visibility: 2.5mi
Dew Point: 30°   Wind: 5mph
Humidity: 87%   Direction: 20°NNE
Pressure: 30.15"   Gusts: NA
Location:  39.0139°N, 77.1601°W
Report Text: KGAI 230215Z 02004KT 2 1/2SM SCT005 OVC012 01/M01 A3015 RMK AO1
Loading
Personal Weather Stations






























Interactive Weather Map New forecast layout! Learn more

10-Day Weather Forecast

Advertisements
Track Severe Weather on mobile